sensor_id;sensor_type;location;lat;lon;timestamp;P1;durP1;ratioP1;P2;durP2;ratioP2
4575;SDS011;2300;51.874;8.430;2023-10-31T00:00:09;9.00;;;7.70;;
4575;SDS011;2300;51.874;8.430;2023-10-31T00:02:37;11.47;;;7.63;;
4575;SDS011;2300;51.874;8.430;2023-10-31T00:05:05;8.48;;;7.15;;
4575;SDS011;2300;51.874;8.430;2023-10-31T00:07:32;9.40;;;6.72;;
4575;SDS011;2300;51.874;8.430;2023-10-31T00:09:59;8.35;;;7.05;;
4575;SDS011;2300;51.874;8.430;2023-10-31T00:12:25;8.67;;;7.13;;
4575;SDS011;2300;51.874;8.430;2023-10-31T00:14:52;9.23;;;6.80;;
4575;SDS011;2300;51.874;8.430;2023-10-31T00:17:19;9.23;;;6.83;;
4575;SDS011;2300;51.874;8.430;2023-10-31T00:19:46;8.47;;;6.90;;
4575;SDS011;2300;51.874;8.430;2023-10-31T00:22:14;7.80;;;6.57;;
4575;SDS011;2300;51.874;8.430;2023-10-31T00:24:40;8.45;;;6.45;;
4575;SDS011;2300;51.874;8.430;2023-10-31T00:27:07;7.13;;;5.87;;
4575;SDS011;2300;51.874;8.430;2023-10-31T00:29:34;8.40;;;6.40;;
4575;SDS011;2300;51.874;8.430;2023-10-31T00:32:00;7.72;;;6.50;;
4575;SDS011;2300;51.874;8.430;2023-10-31T00:34:27;9.13;;;7.33;;
4575;SDS011;2300;51.874;8.430;2023-10-31T00:36:53;10.37;;;7.50;;
4575;SDS011;2300;51.874;8.430;2023-10-31T00:39:21;9.97;;;7.20;;
4575;SDS011;2300;51.874;8.430;2023-10-31T00:41:48;8.00;;;7.10;;
4575;SDS011;2300;51.874;8.430;2023-10-31T00:44:14;9.17;;;6.30;;
4575;SDS011;2300;51.874;8.430;2023-10-31T00:46:41;9.23;;;6.30;;
4575;SDS011;2300;51.874;8.430;2023-10-31T00:49:08;8.47;;;5.80;;
4575;SDS011;2300;51.874;8.430;2023-10-31T00:51:35;6.33;;;5.63;;
4575;SDS011;2300;51.874;8.430;2023-10-31T00:54:02;7.13;;;6.00;;
4575;SDS011;2300;51.874;8.430;2023-10-31T00:56:30;7.43;;;5.77;;
4575;SDS011;2300;51.874;8.430;2023-10-31T00:58:56;8.70;;;6.50;;
4575;SDS011;2300;51.874;8.430;2023-10-31T01:01:23;8.20;;;7.00;;
4575;SDS011;2300;51.874;8.430;2023-10-31T01:03:49;8.50;;;6.47;;
4575;SDS011;2300;51.874;8.430;2023-10-31T01:06:16;8.63;;;6.37;;
4575;SDS011;2300;51.874;8.430;2023-10-31T01:08:43;8.83;;;6.20;;
4575;SDS011;2300;51.874;8.430;2023-10-31T01:11:09;9.00;;;6.40;;
4575;SDS011;2300;51.874;8.430;2023-10-31T01:13:37;7.67;;;6.17;;
4575;SDS011;2300;51.874;8.430;2023-10-31T01:16:04;6.13;;;5.23;;
4575;SDS011;2300;51.874;8.430;2023-10-31T01:18:31;5.90;;;4.87;;
4575;SDS011;2300;51.874;8.430;2023-10-31T01:20:59;6.88;;;4.80;;
4575;SDS011;2300;51.874;8.430;2023-10-31T01:23:25;5.97;;;4.30;;
4575;SDS011;2300;51.874;8.430;2023-10-31T01:25:52;7.13;;;4.60;;
4575;SDS011;2300;51.874;8.430;2023-10-31T01:28:19;6.17;;;4.93;;
4575;SDS011;2300;51.874;8.430;2023-10-31T01:30:47;7.10;;;6.03;;
4575;SDS011;2300;51.874;8.430;2023-10-31T01:33:13;9.87;;;7.87;;
4575;SDS011;2300;51.874;8.430;2023-10-31T01:35:40;9.90;;;8.90;;
4575;SDS011;2300;51.874;8.430;2023-10-31T01:38:07;10.33;;;8.50;;
4575;SDS011;2300;51.874;8.430;2023-10-31T01:40:33;8.87;;;7.97;;
4575;SDS011;2300;51.874;8.430;2023-10-31T01:43:00;8.30;;;7.47;;
4575;SDS011;2300;51.874;8.430;2023-10-31T01:45:26;8.53;;;7.63;;
4575;SDS011;2300;51.874;8.430;2023-10-31T01:47:54;9.80;;;8.80;;
4575;SDS011;2300;51.874;8.430;2023-10-31T01:50:21;10.00;;;9.00;;
4575;SDS011;2300;51.874;8.430;2023-10-31T01:52:48;10.20;;;9.20;;
4575;SDS011;2300;51.874;8.430;2023-10-31T01:55:14;8.80;;;7.90;;
4575;SDS011;2300;51.874;8.430;2023-10-31T01:57:41;8.57;;;7.77;;
4575;SDS011;2300;51.874;8.430;2023-10-31T02:00:11;8.80;;;7.90;;
4575;SDS011;2300;51.874;8.430;2023-10-31T02:02:39;8.73;;;7.93;;
4575;SDS011;2300;51.874;8.430;2023-10-31T02:05:08;9.07;;;8.00;;
4575;SDS011;2300;51.874;8.430;2023-10-31T02:07:35;9.43;;;8.43;;
4575;SDS011;2300;51.874;8.430;2023-10-31T02:10:02;8.57;;;7.67;;
4575;SDS011;2300;51.874;8.430;2023-10-31T02:12:33;7.43;;;6.73;;
4575;SDS011;2300;51.874;8.430;2023-10-31T02:15:00;6.57;;;5.97;;
4575;SDS011;2300;51.874;8.430;2023-10-31T02:17:27;6.53;;;5.93;;
4575;SDS011;2300;51.874;8.430;2023-10-31T02:19:54;5.83;;;5.30;;
4575;SDS011;2300;51.874;8.430;2023-10-31T02:22:22;6.40;;;5.80;;
4575;SDS011;2300;51.874;8.430;2023-10-31T02:24:49;6.37;;;5.77;;
4575;SDS011;2300;51.874;8.430;2023-10-31T02:27:16;6.50;;;5.90;;
4575;SDS011;2300;51.874;8.430;2023-10-31T02:29:42;6.43;;;5.83;;
4575;SDS011;2300;51.874;8.430;2023-10-31T02:32:09;7.80;;;7.00;;
4575;SDS011;2300;51.874;8.430;2023-10-31T02:34:35;7.40;;;6.70;;
4575;SDS011;2300;51.874;8.430;2023-10-31T02:37:02;7.10;;;6.40;;
4575;SDS011;2300;51.874;8.430;2023-10-31T02:39:32;6.30;;;5.70;;
4575;SDS011;2300;51.874;8.430;2023-10-31T02:41:59;6.70;;;6.00;;
4575;SDS011;2300;51.874;8.430;2023-10-31T02:44:26;6.07;;;5.30;;
4575;SDS011;2300;51.874;8.430;2023-10-31T02:46:52;6.17;;;5.03;;
4575;SDS011;2300;51.874;8.430;2023-10-31T02:49:19;7.93;;;5.53;;
4575;SDS011;2300;51.874;8.430;2023-10-31T02:51:46;6.20;;;5.20;;
4575;SDS011;2300;51.874;8.430;2023-10-31T02:54:13;5.90;;;5.33;;
4575;SDS011;2300;51.874;8.430;2023-10-31T02:56:41;5.23;;;4.57;;
4575;SDS011;2300;51.874;8.430;2023-10-31T02:59:07;5.10;;;4.50;;
4575;SDS011;2300;51.874;8.430;2023-10-31T03:01:34;5.23;;;4.40;;
4575;SDS011;2300;51.874;8.430;2023-10-31T03:04:01;5.90;;;4.17;;
4575;SDS011;2300;51.874;8.430;2023-10-31T03:06:28;5.60;;;3.87;;
4575;SDS011;2300;51.874;8.430;2023-10-31T03:08:54;4.37;;;3.03;;
4575;SDS011;2300;51.874;8.430;2023-10-31T03:11:21;3.47;;;2.97;;
4575;SDS011;2300;51.874;8.430;2023-10-31T03:13:49;5.07;;;3.10;;
4575;SDS011;2300;51.874;8.430;2023-10-31T03:16:16;3.90;;;3.00;;
4575;SDS011;2300;51.874;8.430;2023-10-31T03:18:42;3.87;;;3.07;;
4575;SDS011;2300;51.874;8.430;2023-10-31T03:21:09;4.47;;;3.43;;
4575;SDS011;2300;51.874;8.430;2023-10-31T03:23:35;6.37;;;3.40;;
4575;SDS011;2300;51.874;8.430;2023-10-31T03:26:02;3.30;;;2.60;;
4575;SDS011;2300;51.874;8.430;2023-10-31T03:28:29;3.50;;;3.03;;
4575;SDS011;2300;51.874;8.430;2023-10-31T03:30:57;5.93;;;3.00;;
4575;SDS011;2300;51.874;8.430;2023-10-31T03:33:24;3.30;;;2.00;;
4575;SDS011;2300;51.874;8.430;2023-10-31T03:35:50;2.83;;;2.30;;
4575;SDS011;2300;51.874;8.430;2023-10-31T03:38:17;3.67;;;2.57;;
4575;SDS011;2300;51.874;8.430;2023-10-31T03:40:44;4.60;;;2.33;;
4575;SDS011;2300;51.874;8.430;2023-10-31T03:43:10;2.50;;;2.00;;
4575;SDS011;2300;51.874;8.430;2023-10-31T03:45:37;3.00;;;2.27;;
4575;SDS011;2300;51.874;8.430;2023-10-31T03:48:05;3.97;;;2.27;;
4575;SDS011;2300;51.874;8.430;2023-10-31T03:50:31;2.80;;;1.70;;
4575;SDS011;2300;51.874;8.430;2023-10-31T03:52:58;4.20;;;2.40;;
4575;SDS011;2300;51.874;8.430;2023-10-31T03:55:25;3.40;;;2.30;;
4575;SDS011;2300;51.874;8.430;2023-10-31T03:57:51;5.43;;;2.40;;
4575;SDS011;2300;51.874;8.430;2023-10-31T04:00:18;5.03;;;2.70;;
4575;SDS011;2300;51.874;8.430;2023-10-31T04:02:44;5.50;;;3.37;;
4575;SDS011;2300;51.874;8.430;2023-10-31T04:05:12;4.13;;;3.07;;
4575;SDS011;2300;51.874;8.430;2023-10-31T04:07:39;5.60;;;3.27;;
4575;SDS011;2300;51.874;8.430;2023-10-31T04:10:05;5.83;;;3.30;;
4575;SDS011;2300;51.874;8.430;2023-10-31T04:12:32;7.00;;;3.83;;
4575;SDS011;2300;51.874;8.430;2023-10-31T04:15:00;6.23;;;3.37;;
4575;SDS011;2300;51.874;8.430;2023-10-31T04:17:26;6.07;;;4.50;;
4575;SDS011;2300;51.874;8.430;2023-10-31T04:19:53;5.73;;;4.13;;
4575;SDS011;2300;51.874;8.430;2023-10-31T04:22:21;7.70;;;4.67;;
4575;SDS011;2300;51.874;8.430;2023-10-31T04:24:47;8.77;;;5.10;;
4575;SDS011;2300;51.874;8.430;2023-10-31T04:27:14;7.90;;;5.20;;
4575;SDS011;2300;51.874;8.430;2023-10-31T04:29:43;7.33;;;5.60;;
4575;SDS011;2300;51.874;8.430;2023-10-31T04:32:10;6.90;;;6.20;;
4575;SDS011;2300;51.874;8.430;2023-10-31T04:34:36;8.73;;;6.40;;
4575;SDS011;2300;51.874;8.430;2023-10-31T04:37:03;7.73;;;6.23;;
4575;SDS011;2300;51.874;8.430;2023-10-31T04:39:31;9.37;;;7.03;;
4575;SDS011;2300;51.874;8.430;2023-10-31T04:41:58;9.50;;;7.03;;
4575;SDS011;2300;51.874;8.430;2023-10-31T04:44:24;8.70;;;7.60;;
4575;SDS011;2300;51.874;8.430;2023-10-31T04:46:51;9.67;;;8.30;;
4575;SDS011;2300;51.874;8.430;2023-10-31T04:49:18;10.57;;;8.17;;
4575;SDS011;2300;51.874;8.430;2023-10-31T04:51:45;11.47;;;9.27;;
4575;SDS011;2300;51.874;8.430;2023-10-31T04:54:12;11.00;;;9.47;;
4575;SDS011;2300;51.874;8.430;2023-10-31T04:56:40;14.27;;;9.33;;
4575;SDS011;2300;51.874;8.430;2023-10-31T04:59:06;14.37;;;10.13;;
4575;SDS011;2300;51.874;8.430;2023-10-31T05:01:33;14.00;;;10.97;;
4575;SDS011;2300;51.874;8.430;2023-10-31T05:04:00;14.93;;;10.90;;
4575;SDS011;2300;51.874;8.430;2023-10-31T05:06:26;14.50;;;9.30;;
4575;SDS011;2300;51.874;8.430;2023-10-31T05:08:53;13.73;;;10.20;;
4575;SDS011;2300;51.874;8.430;2023-10-31T05:11:19;13.00;;;9.93;;
4575;SDS011;2300;51.874;8.430;2023-10-31T05:13:47;11.87;;;9.57;;
4575;SDS011;2300;51.874;8.430;2023-10-31T05:16:14;15.27;;;10.13;;
4575;SDS011;2300;51.874;8.430;2023-10-31T05:18:41;14.83;;;10.27;;
4575;SDS011;2300;51.874;8.430;2023-10-31T05:21:07;14.27;;;11.60;;
4575;SDS011;2300;51.874;8.430;2023-10-31T05:23:34;14.63;;;10.97;;
4575;SDS011;2300;51.874;8.430;2023-10-31T05:26:01;16.50;;;12.70;;
4575;SDS011;2300;51.874;8.430;2023-10-31T05:28:31;16.07;;;13.13;;
4575;SDS011;2300;51.874;8.430;2023-10-31T05:30:59;17.10;;;13.47;;
4575;SDS011;2300;51.874;8.430;2023-10-31T05:33:25;23.27;;;15.80;;
4575;SDS011;2300;51.874;8.430;2023-10-31T05:35:52;19.70;;;15.47;;
4575;SDS011;2300;51.874;8.430;2023-10-31T05:38:18;20.50;;;16.27;;
4575;SDS011;2300;51.874;8.430;2023-10-31T05:40:45;21.70;;;17.10;;
4575;SDS011;2300;51.874;8.430;2023-10-31T05:43:12;23.60;;;18.27;;
4575;SDS011;2300;51.874;8.430;2023-10-31T05:45:38;23.00;;;18.73;;
4575;SDS011;2300;51.874;8.430;2023-10-31T05:48:06;25.67;;;19.77;;
4575;SDS011;2300;51.874;8.430;2023-10-31T05:50:33;26.37;;;21.63;;
4575;SDS011;2300;51.874;8.430;2023-10-31T05:53:00;31.13;;;23.10;;
4575;SDS011;2300;51.874;8.430;2023-10-31T05:55:26;27.20;;;21.97;;
4575;SDS011;2300;51.874;8.430;2023-10-31T05:57:53;29.67;;;23.03;;
4575;SDS011;2300;51.874;8.430;2023-10-31T06:00:20;28.77;;;22.77;;
4575;SDS011;2300;51.874;8.430;2023-10-31T06:02:46;29.17;;;23.70;;
4575;SDS011;2300;51.874;8.430;2023-10-31T06:05:14;26.60;;;21.23;;
4575;SDS011;2300;51.874;8.430;2023-10-31T06:07:41;26.33;;;21.07;;
4575;SDS011;2300;51.874;8.430;2023-10-31T06:10:08;26.43;;;19.90;;
4575;SDS011;2300;51.874;8.430;2023-10-31T06:12:35;25.63;;;19.73;;
4575;SDS011;2300;51.874;8.430;2023-10-31T06:15:02;23.57;;;18.47;;
4575;SDS011;2300;51.874;8.430;2023-10-31T06:17:29;24.33;;;18.53;;
4575;SDS011;2300;51.874;8.430;2023-10-31T06:19:58;23.40;;;17.67;;
4575;SDS011;2300;51.874;8.430;2023-10-31T06:22:26;19.43;;;16.40;;
4575;SDS011;2300;51.874;8.430;2023-10-31T06:24:53;17.90;;;14.63;;
4575;SDS011;2300;51.874;8.430;2023-10-31T06:27:19;20.77;;;15.40;;
4575;SDS011;2300;51.874;8.430;2023-10-31T06:29:46;17.73;;;13.70;;
4575;SDS011;2300;51.874;8.430;2023-10-31T06:32:12;18.60;;;13.73;;
4575;SDS011;2300;51.874;8.430;2023-10-31T06:34:39;18.40;;;13.43;;
4575;SDS011;2300;51.874;8.430;2023-10-31T06:37:06;18.43;;;14.47;;
4575;SDS011;2300;51.874;8.430;2023-10-31T06:39:34;21.10;;;14.17;;
4575;SDS011;2300;51.874;8.430;2023-10-31T06:42:00;17.17;;;14.87;;
4575;SDS011;2300;51.874;8.430;2023-10-31T06:44:27;18.77;;;14.33;;
4575;SDS011;2300;51.874;8.430;2023-10-31T06:46:54;21.07;;;14.97;;
4575;SDS011;2300;51.874;8.430;2023-10-31T06:49:21;20.00;;;15.67;;
4575;SDS011;2300;51.874;8.430;2023-10-31T06:51:49;21.27;;;15.87;;
4575;SDS011;2300;51.874;8.430;2023-10-31T06:54:15;21.93;;;15.27;;
4575;SDS011;2300;51.874;8.430;2023-10-31T06:56:43;20.60;;;14.37;;
4575;SDS011;2300;51.874;8.430;2023-10-31T06:59:10;16.97;;;13.27;;
4575;SDS011;2300;51.874;8.430;2023-10-31T07:01:36;17.63;;;13.67;;
4575;SDS011;2300;51.874;8.430;2023-10-31T07:04:03;15.50;;;12.00;;
4575;SDS011;2300;51.874;8.430;2023-10-31T07:06:30;16.93;;;12.73;;
4575;SDS011;2300;51.874;8.430;2023-10-31T07:08:56;15.97;;;11.53;;
4575;SDS011;2300;51.874;8.430;2023-10-31T07:11:25;16.37;;;11.07;;
4575;SDS011;2300;51.874;8.430;2023-10-31T07:13:53;14.50;;;10.80;;
4575;SDS011;2300;51.874;8.430;2023-10-31T07:16:20;16.87;;;11.17;;
4575;SDS011;2300;51.874;8.430;2023-10-31T07:18:46;16.57;;;11.37;;
4575;SDS011;2300;51.874;8.430;2023-10-31T07:21:12;16.73;;;11.33;;
4575;SDS011;2300;51.874;8.430;2023-10-31T07:23:39;16.40;;;12.47;;
4575;SDS011;2300;51.874;8.430;2023-10-31T07:26:06;15.53;;;11.57;;
4575;SDS011;2300;51.874;8.430;2023-10-31T07:28:32;17.43;;;12.80;;
4575;SDS011;2300;51.874;8.430;2023-10-31T07:31:00;17.57;;;12.13;;
4575;SDS011;2300;51.874;8.430;2023-10-31T07:33:27;16.40;;;10.80;;
4575;SDS011;2300;51.874;8.430;2023-10-31T07:35:54;15.00;;;10.87;;
4575;SDS011;2300;51.874;8.430;2023-10-31T07:38:20;15.07;;;11.17;;
4575;SDS011;2300;51.874;8.430;2023-10-31T07:40:47;16.43;;;10.87;;
4575;SDS011;2300;51.874;8.430;2023-10-31T07:43:14;9.33;;;5.87;;
4575;SDS011;2300;51.874;8.430;2023-10-31T07:45:41;8.40;;;5.10;;
4575;SDS011;2300;51.874;8.430;2023-10-31T07:48:09;8.20;;;4.63;;
4575;SDS011;2300;51.874;8.430;2023-10-31T07:50:36;6.97;;;4.60;;
4575;SDS011;2300;51.874;8.430;2023-10-31T07:53:02;8.77;;;4.60;;
4575;SDS011;2300;51.874;8.430;2023-10-31T07:55:29;8.53;;;5.83;;
4575;SDS011;2300;51.874;8.430;2023-10-31T07:57:56;12.30;;;8.40;;
4575;SDS011;2300;51.874;8.430;2023-10-31T08:00:22;11.10;;;8.33;;
4575;SDS011;2300;51.874;8.430;2023-10-31T08:02:49;13.77;;;8.73;;
4575;SDS011;2300;51.874;8.430;2023-10-31T08:05:17;12.83;;;8.57;;
4575;SDS011;2300;51.874;8.430;2023-10-31T08:07:43;10.50;;;8.03;;
4575;SDS011;2300;51.874;8.430;2023-10-31T08:10:10;12.17;;;8.50;;
4575;SDS011;2300;51.874;8.430;2023-10-31T08:12:36;12.10;;;8.60;;
4575;SDS011;2300;51.874;8.430;2023-10-31T08:15:03;14.73;;;9.47;;
4575;SDS011;2300;51.874;8.430;2023-10-31T08:17:30;12.20;;;9.07;;
4575;SDS011;2300;51.874;8.430;2023-10-31T08:19:57;14.50;;;10.23;;
4575;SDS011;2300;51.874;8.430;2023-10-31T08:22:25;13.13;;;9.20;;
4575;SDS011;2300;51.874;8.430;2023-10-31T08:24:51;11.97;;;8.50;;
4575;SDS011;2300;51.874;8.430;2023-10-31T08:27:18;10.10;;;7.80;;
4575;SDS011;2300;51.874;8.430;2023-10-31T08:29:44;11.07;;;7.23;;
4575;SDS011;2300;51.874;8.430;2023-10-31T08:32:11;9.40;;;6.73;;
4575;SDS011;2300;51.874;8.430;2023-10-31T08:34:38;10.00;;;5.97;;
4575;SDS011;2300;51.874;8.430;2023-10-31T08:37:04;8.60;;;5.40;;
4575;SDS011;2300;51.874;8.430;2023-10-31T08:39:32;8.07;;;5.23;;
4575;SDS011;2300;51.874;8.430;2023-10-31T08:41:58;6.93;;;4.67;;
4575;SDS011;2300;51.874;8.430;2023-10-31T08:44:25;8.67;;;5.03;;
4575;SDS011;2300;51.874;8.430;2023-10-31T08:46:53;7.27;;;4.67;;
4575;SDS011;2300;51.874;8.430;2023-10-31T08:49:19;8.10;;;4.67;;
4575;SDS011;2300;51.874;8.430;2023-10-31T08:51:46;7.50;;;4.87;;
4575;SDS011;2300;51.874;8.430;2023-10-31T08:54:12;8.00;;;4.17;;
4575;SDS011;2300;51.874;8.430;2023-10-31T08:56:40;5.23;;;3.90;;
4575;SDS011;2300;51.874;8.430;2023-10-31T08:59:07;6.20;;;4.30;;
4575;SDS011;2300;51.874;8.430;2023-10-31T09:01:33;8.27;;;4.90;;
4575;SDS011;2300;51.874;8.430;2023-10-31T09:04:00;9.13;;;5.00;;
4575;SDS011;2300;51.874;8.430;2023-10-31T09:06:26;8.90;;;4.33;;
4575;SDS011;2300;51.874;8.430;2023-10-31T09:08:53;8.73;;;5.20;;
4575;SDS011;2300;51.874;8.430;2023-10-31T09:11:20;9.10;;;6.10;;
4575;SDS011;2300;51.874;8.430;2023-10-31T09:13:48;9.30;;;5.73;;
4575;SDS011;2300;51.874;8.430;2023-10-31T09:16:14;11.10;;;6.53;;
4575;SDS011;2300;51.874;8.430;2023-10-31T09:18:41;11.17;;;7.93;;
4575;SDS011;2300;51.874;8.430;2023-10-31T09:21:08;11.27;;;7.77;;
4575;SDS011;2300;51.874;8.430;2023-10-31T09:23:35;11.97;;;8.43;;
4575;SDS011;2300;51.874;8.430;2023-10-31T09:26:02;14.73;;;9.20;;
4575;SDS011;2300;51.874;8.430;2023-10-31T09:28:28;12.77;;;8.70;;
4575;SDS011;2300;51.874;8.430;2023-10-31T09:30:56;12.97;;;9.43;;
4575;SDS011;2300;51.874;8.430;2023-10-31T09:33:25;14.70;;;9.20;;
4575;SDS011;2300;51.874;8.430;2023-10-31T09:35:51;14.53;;;10.33;;
4575;SDS011;2300;51.874;8.430;2023-10-31T09:38:18;15.20;;;10.23;;
4575;SDS011;2300;51.874;8.430;2023-10-31T09:40:44;13.97;;;11.00;;
4575;SDS011;2300;51.874;8.430;2023-10-31T09:43:11;16.60;;;11.10;;
4575;SDS011;2300;51.874;8.430;2023-10-31T09:45:37;16.03;;;11.50;;
4575;SDS011;2300;51.874;8.430;2023-10-31T09:48:05;15.77;;;11.50;;
4575;SDS011;2300;51.874;8.430;2023-10-31T09:50:32;14.33;;;11.00;;
4575;SDS011;2300;51.874;8.430;2023-10-31T09:53:00;16.47;;;11.87;;
4575;SDS011;2300;51.874;8.430;2023-10-31T09:55:27;15.53;;;11.13;;
4575;SDS011;2300;51.874;8.430;2023-10-31T09:57:54;15.30;;;11.50;;
4575;SDS011;2300;51.874;8.430;2023-10-31T10:00:21;15.67;;;11.37;;
4575;SDS011;2300;51.874;8.430;2023-10-31T10:02:48;15.27;;;11.50;;
4575;SDS011;2300;51.874;8.430;2023-10-31T10:05:17;15.43;;;10.10;;
4575;SDS011;2300;51.874;8.430;2023-10-31T10:07:44;13.80;;;9.93;;
4575;SDS011;2300;51.874;8.430;2023-10-31T10:10:11;12.47;;;9.87;;
4575;SDS011;2300;51.874;8.430;2023-10-31T10:12:38;13.83;;;10.37;;
4575;SDS011;2300;51.874;8.430;2023-10-31T10:15:07;15.40;;;10.73;;
4575;SDS011;2300;51.874;8.430;2023-10-31T10:17:34;12.63;;;9.60;;
4575;SDS011;2300;51.874;8.430;2023-10-31T10:20:07;15.77;;;9.67;;
4575;SDS011;2300;51.874;8.430;2023-10-31T10:22:39;14.23;;;9.90;;
4575;SDS011;2300;51.874;8.430;2023-10-31T10:25:07;15.60;;;10.00;;
4575;SDS011;2300;51.874;8.430;2023-10-31T10:27:34;13.73;;;9.27;;
4575;SDS011;2300;51.874;8.430;2023-10-31T10:30:01;12.50;;;9.83;;
4575;SDS011;2300;51.874;8.430;2023-10-31T10:32:28;13.37;;;10.63;;
4575;SDS011;2300;51.874;8.430;2023-10-31T10:34:55;13.63;;;10.33;;
4575;SDS011;2300;51.874;8.430;2023-10-31T10:37:22;13.90;;;10.33;;
4575;SDS011;2300;51.874;8.430;2023-10-31T10:39:52;12.60;;;11.23;;
4575;SDS011;2300;51.874;8.430;2023-10-31T10:42:21;13.93;;;11.80;;
4575;SDS011;2300;51.874;8.430;2023-10-31T10:44:57;14.73;;;12.63;;
4575;SDS011;2300;51.874;8.430;2023-10-31T10:47:27;15.93;;;13.60;;
4575;SDS011;2300;51.874;8.430;2023-10-31T10:49:55;16.70;;;13.73;;
4575;SDS011;2300;51.874;8.430;2023-10-31T10:52:27;17.93;;;14.17;;
4575;SDS011;2300;51.874;8.430;2023-10-31T10:55:00;18.37;;;15.50;;
4575;SDS011;2300;51.874;8.430;2023-10-31T10:57:35;17.90;;;15.90;;
4575;SDS011;2300;51.874;8.430;2023-10-31T11:00:05;20.10;;;15.80;;
4575;SDS011;2300;51.874;8.430;2023-10-31T11:02:33;19.23;;;16.50;;
4575;SDS011;2300;51.874;8.430;2023-10-31T11:05:02;20.77;;;16.97;;
4575;SDS011;2300;51.874;8.430;2023-10-31T11:07:31;21.03;;;18.50;;
4575;SDS011;2300;51.874;8.430;2023-10-31T11:10:01;24.30;;;18.70;;
4575;SDS011;2300;51.874;8.430;2023-10-31T11:12:30;21.77;;;18.40;;
4575;SDS011;2300;51.874;8.430;2023-10-31T11:14:56;23.27;;;20.33;;
4575;SDS011;2300;51.874;8.430;2023-10-31T11:17:26;21.90;;;19.47;;
4575;SDS011;2300;51.874;8.430;2023-10-31T11:19:55;23.97;;;20.60;;
4575;SDS011;2300;51.874;8.430;2023-10-31T11:22:22;24.03;;;20.63;;
4575;SDS011;2300;51.874;8.430;2023-10-31T11:24:49;27.27;;;20.50;;
4575;SDS011;2300;51.874;8.430;2023-10-31T11:27:18;26.10;;;21.10;;
4575;SDS011;2300;51.874;8.430;2023-10-31T11:29:44;25.70;;;20.33;;
4575;SDS011;2300;51.874;8.430;2023-10-31T11:32:11;29.27;;;22.00;;
4575;SDS011;2300;51.874;8.430;2023-10-31T11:34:38;25.40;;;20.60;;
4575;SDS011;2300;51.874;8.430;2023-10-31T11:37:18;27.70;;;22.20;;
4575;SDS011;2300;51.874;8.430;2023-10-31T11:42:48;31.17;;;23.27;;
4575;SDS011;2300;51.874;8.430;2023-10-31T11:45:25;28.90;;;23.47;;
4575;SDS011;2300;51.874;8.430;2023-10-31T11:47:53;25.37;;;21.00;;
4575;SDS011;2300;51.874;8.430;2023-10-31T11:50:20;26.07;;;20.07;;
4575;SDS011;2300;51.874;8.430;2023-10-31T11:52:58;24.20;;;19.97;;
4575;SDS011;2300;51.874;8.430;2023-10-31T11:55:25;22.00;;;18.40;;
4575;SDS011;2300;51.874;8.430;2023-10-31T11:57:54;22.33;;;18.23;;
4575;SDS011;2300;51.874;8.430;2023-10-31T12:00:21;23.20;;;18.20;;
4575;SDS011;2300;51.874;8.430;2023-10-31T12:02:58;23.57;;;18.63;;
4575;SDS011;2300;51.874;8.430;2023-10-31T12:05:25;25.57;;;17.77;;
4575;SDS011;2300;51.874;8.430;2023-10-31T12:07:53;21.53;;;18.20;;
4575;SDS011;2300;51.874;8.430;2023-10-31T12:10:23;20.53;;;16.50;;
4575;SDS011;2300;51.874;8.430;2023-10-31T12:12:51;18.97;;;16.47;;
4575;SDS011;2300;51.874;8.430;2023-10-31T12:15:20;18.17;;;15.67;;
4575;SDS011;2300;51.874;8.430;2023-10-31T12:17:47;20.70;;;16.10;;
4575;SDS011;2300;51.874;8.430;2023-10-31T12:20:14;19.00;;;16.53;;
4575;SDS011;2300;51.874;8.430;2023-10-31T12:22:42;20.47;;;16.20;;
4575;SDS011;2300;51.874;8.430;2023-10-31T12:25:09;20.43;;;17.13;;
4575;SDS011;2300;51.874;8.430;2023-10-31T12:27:43;21.87;;;17.07;;
4575;SDS011;2300;51.874;8.430;2023-10-31T12:30:12;21.73;;;17.07;;
4575;SDS011;2300;51.874;8.430;2023-10-31T12:32:41;22.50;;;16.77;;
4575;SDS011;2300;51.874;8.430;2023-10-31T12:35:09;22.83;;;17.87;;
4575;SDS011;2300;51.874;8.430;2023-10-31T12:37:40;22.10;;;17.27;;
4575;SDS011;2300;51.874;8.430;2023-10-31T12:40:09;23.60;;;17.47;;
4575;SDS011;2300;51.874;8.430;2023-10-31T12:42:37;20.33;;;17.63;;
4575;SDS011;2300;51.874;8.430;2023-10-31T12:45:04;21.90;;;17.90;;
4575;SDS011;2300;51.874;8.430;2023-10-31T12:47:32;22.33;;;18.23;;
4575;SDS011;2300;51.874;8.430;2023-10-31T12:50:07;19.77;;;17.67;;
4575;SDS011;2300;51.874;8.430;2023-10-31T12:52:45;25.13;;;18.00;;
4575;SDS011;2300;51.874;8.430;2023-10-31T12:55:12;22.73;;;18.03;;
4575;SDS011;2300;51.874;8.430;2023-10-31T12:57:40;22.17;;;17.17;;
4575;SDS011;2300;51.874;8.430;2023-10-31T13:00:07;22.57;;;17.50;;
4575;SDS011;2300;51.874;8.430;2023-10-31T13:02:37;23.47;;;18.03;;
4575;SDS011;2300;51.874;8.430;2023-10-31T13:05:09;22.53;;;17.10;;
4575;SDS011;2300;51.874;8.430;2023-10-31T13:07:39;25.53;;;18.60;;
4575;SDS011;2300;51.874;8.430;2023-10-31T13:10:06;23.40;;;17.57;;
4575;SDS011;2300;51.874;8.430;2023-10-31T13:12:35;24.57;;;19.07;;
4575;SDS011;2300;51.874;8.430;2023-10-31T13:15:02;24.53;;;18.17;;
4575;SDS011;2300;51.874;8.430;2023-10-31T13:17:29;25.60;;;18.93;;
4575;SDS011;2300;51.874;8.430;2023-10-31T13:19:57;22.87;;;18.47;;
4575;SDS011;2300;51.874;8.430;2023-10-31T13:22:26;25.90;;;19.50;;
4575;SDS011;2300;51.874;8.430;2023-10-31T13:24:52;23.93;;;18.97;;
4575;SDS011;2300;51.874;8.430;2023-10-31T13:27:19;27.77;;;19.90;;
4575;SDS011;2300;51.874;8.430;2023-10-31T13:29:46;25.93;;;19.80;;
4575;SDS011;2300;51.874;8.430;2023-10-31T13:32:14;25.67;;;20.90;;
4575;SDS011;2300;51.874;8.430;2023-10-31T13:34:41;33.57;;;20.23;;
4575;SDS011;2300;51.874;8.430;2023-10-31T13:37:08;27.63;;;21.43;;
4575;SDS011;2300;51.874;8.430;2023-10-31T13:39:36;28.27;;;20.70;;
4575;SDS011;2300;51.874;8.430;2023-10-31T13:42:03;30.97;;;19.70;;
4575;SDS011;2300;51.874;8.430;2023-10-31T13:44:29;27.97;;;19.47;;
4575;SDS011;2300;51.874;8.430;2023-10-31T13:46:56;24.60;;;19.77;;
4575;SDS011;2300;51.874;8.430;2023-10-31T13:49:22;25.60;;;20.50;;
4575;SDS011;2300;51.874;8.430;2023-10-31T13:51:49;29.67;;;20.33;;
4575;SDS011;2300;51.874;8.430;2023-10-31T13:54:16;24.87;;;20.07;;
4575;SDS011;2300;51.874;8.430;2023-10-31T13:56:45;25.53;;;18.23;;
4575;SDS011;2300;51.874;8.430;2023-10-31T13:59:12;26.33;;;19.23;;
4575;SDS011;2300;51.874;8.430;2023-10-31T14:01:39;27.47;;;18.30;;
4575;SDS011;2300;51.874;8.430;2023-10-31T14:04:06;27.80;;;18.73;;
4575;SDS011;2300;51.874;8.430;2023-10-31T14:06:33;25.30;;;18.17;;
4575;SDS011;2300;51.874;8.430;2023-10-31T14:09:00;25.30;;;19.23;;
4575;SDS011;2300;51.874;8.430;2023-10-31T14:11:29;27.50;;;18.50;;
4575;SDS011;2300;51.874;8.430;2023-10-31T14:13:57;30.27;;;18.67;;
4575;SDS011;2300;51.874;8.430;2023-10-31T14:16:27;28.57;;;19.00;;
4575;SDS011;2300;51.874;8.430;2023-10-31T14:18:54;25.50;;;18.67;;
4575;SDS011;2300;51.874;8.430;2023-10-31T14:21:21;23.47;;;18.67;;
4575;SDS011;2300;51.874;8.430;2023-10-31T14:23:47;28.77;;;20.00;;
4575;SDS011;2300;51.874;8.430;2023-10-31T14:26:19;26.73;;;17.70;;
4575;SDS011;2300;51.874;8.430;2023-10-31T14:28:46;24.13;;;17.73;;
4575;SDS011;2300;51.874;8.430;2023-10-31T14:31:14;25.40;;;19.37;;
4575;SDS011;2300;51.874;8.430;2023-10-31T14:33:41;21.53;;;16.20;;
4575;SDS011;2300;51.874;8.430;2023-10-31T14:36:08;21.03;;;14.90;;
4575;SDS011;2300;51.874;8.430;2023-10-31T14:38:37;19.83;;;14.50;;
4575;SDS011;2300;51.874;8.430;2023-10-31T14:41:04;21.13;;;15.90;;
4575;SDS011;2300;51.874;8.430;2023-10-31T14:43:31;23.33;;;19.20;;
4575;SDS011;2300;51.874;8.430;2023-10-31T14:46:00;23.50;;;14.53;;
4575;SDS011;2300;51.874;8.430;2023-10-31T14:48:29;20.10;;;14.27;;
4575;SDS011;2300;51.874;8.430;2023-10-31T14:50:55;22.83;;;14.83;;
4575;SDS011;2300;51.874;8.430;2023-10-31T14:53:22;18.30;;;12.23;;
4575;SDS011;2300;51.874;8.430;2023-10-31T14:55:49;24.00;;;15.53;;
4575;SDS011;2300;51.874;8.430;2023-10-31T14:58:16;17.50;;;13.43;;
4575;SDS011;2300;51.874;8.430;2023-10-31T15:00:42;23.47;;;13.63;;
4575;SDS011;2300;51.874;8.430;2023-10-31T15:03:09;15.87;;;10.83;;